createdAt,value
2023-02-18T00:30:22.229Z,290
2023-02-18T00:50:22.205Z,291
2023-02-18T01:10:22.248Z,302
2023-02-18T01:30:29.289Z,311
2023-02-18T01:50:22.282Z,314
2023-02-18T02:10:22.306Z,316
2023-02-18T02:30:29.308Z,317
2023-02-18T02:50:22.399Z,314
2023-02-18T03:10:22.402Z,314
2023-02-18T03:30:22.511Z,315
2023-02-18T03:50:22.520Z,316
2023-02-18T04:10:22.519Z,315
2023-02-18T04:30:22.566Z,317
2023-02-18T04:50:22.554Z,316
2023-02-18T05:10:22.720Z,317
2023-02-18T05:30:22.725Z,319
2023-02-18T05:50:22.689Z,315
2023-02-18T06:10:22.698Z,317
2023-02-18T06:30:24.306Z,317
2023-02-18T06:50:22.773Z,322
2023-02-18T07:10:22.798Z,322
2023-02-18T07:30:22.901Z,322
2023-02-18T07:50:22.857Z,322
2023-02-18T08:10:22.898Z,325
2023-02-18T08:50:22.974Z,323
2023-02-18T09:10:22.911Z,324
2023-02-18T09:30:23.199Z,325
2023-02-18T09:50:23.055Z,325
2023-02-18T10:10:23.099Z,327
2023-02-18T10:30:23.175Z,324
2023-02-18T11:10:23.206Z,332
2023-02-18T11:30:23.255Z,340
2023-02-18T11:50:30.271Z,338
2023-02-18T12:10:23.347Z,343
2023-02-18T12:30:23.432Z,342
2023-02-18T12:50:23.279Z,344
2023-02-18T13:10:23.402Z,343
2023-02-18T13:30:23.482Z,340
2023-02-18T13:50:23.438Z,344
2023-02-18T14:10:23.472Z,345
2023-02-18T15:10:23.609Z,343
2023-02-18T15:30:30.745Z,345
2023-02-18T15:50:23.651Z,341
2023-02-18T16:10:23.576Z,347
2023-02-18T16:30:23.761Z,351
2023-02-18T16:50:23.765Z,356
2023-02-18T17:10:23.768Z,362
2023-02-18T17:30:23.882Z,364
2023-02-18T17:50:23.855Z,362
2023-02-18T18:10:23.859Z,361
2023-02-18T18:30:23.992Z,358
2023-02-18T18:50:23.848Z,357
2023-02-18T19:10:23.973Z,352
2023-02-18T19:30:24.063Z,355
2023-02-18T19:50:24.030Z,355
2023-02-18T20:30:24.126Z,359
2023-02-18T20:50:24.134Z,359
2023-02-18T21:10:24.191Z,355
2023-02-18T21:30:24.355Z,356
2023-02-18T21:50:24.236Z,355
2023-02-18T22:30:24.321Z,352
2023-02-18T22:50:24.367Z,351
2023-02-18T23:10:24.373Z,351
2023-02-18T23:30:24.388Z,350
2023-02-18T23:50:24.416Z,347
